Latest Coastal Weather Observations for Dum In Mirrie

IDD60701

Issued at 1:01 am CST Tuesday 26 May 2015 (issued every 10 minutes, with the page automatically refreshed every 10 minutes)

About coastal observations | Map of coastal stations | Coastal observations for NT | Marine services | Other Formats
Station Details ID: 014277 Name: DUM IN MIRRIE AIRSTRIP Lat: -12.63 Lon: 130.37 Height: 3.5 m
Data from the previous 72 hours. | See also: Recent months at Dum In Mirrie
Date/Time
CST
Temp

°C
Wind Pressure Rain
since 9am
mm
Weather Cloud Vis
km
Sea
Height
m
Swell
Dir
 
Speed
knots
Gust
knots
hPa Trend Height
m
Period
s
Dir
26/01:00am 24.3 S 1 3 1015.4 - 0.0 - - - - - - -
26/12:30am 24.5 S 1 2 1015.6 - 0.0 - - - - - - -
26/12:00am 24.7 S 2 3 1015.8 - 0.0 - - - - - - -
 
Date/Time
CST
Temp

°C
Wind Pressure Rain
since 9am
mm
Weather Cloud Vis
km
Sea
Height
m
Swell
Dir
 
Speed
knots
Gust
knots
hPa Trend Height
m
Period
s
Dir
25/11:30pm 23.4 CALM 0 1 1015.8 - 0.0 - - - - - - -
25/11:00pm 23.5 CALM 0 0 1015.8 - 0.0 - - - - - - -
25/10:30pm 24.0 CALM 0 1 1015.9 - 0.0 - - - - - - -
25/10:00pm 25.1 CALM 0 2 1015.9 - 0.0 - - - - - - -
25/09:30pm 24.9 CALM 0 0 1015.7 - 0.0 - - - - - - -
25/09:00pm 24.7 CALM 0 0 1015.4 - 0.0 - - - - - - -
25/08:30pm 23.9 CALM 0 0 1014.9 - 0.0 - - - - - - -
25/08:00pm 23.8 N 1 2 1014.5 - 0.0 - - - - - - -
25/07:30pm 24.9 CALM 0 0 1014.1 - 0.0 - - - - - - -
25/07:00pm 26.1 NNE 2 3 1013.7 - 0.0 - - - - - - -
25/06:30pm 27.1 NNE 2 5 1013.6 - 0.0 - - - - - - -
25/06:00pm 28.1 NNE 2 6 1013.4 - 0.0 - - - - - - -
25/05:30pm 28.7 NNE 5 8 1013.0 - 0.0 - - - - - - -
25/05:00pm 28.9 NNE 7 10 1012.9 - 0.0 - - - - - - -
25/04:30pm 29.5 N 6 11 1012.7 - 0.0 - - - - - - -
25/04:00pm 30.9 N 6 9 1012.8 - 0.0 - - - - - - -
25/03:30pm 31.4 NNE 5 9 1012.9 - 0.0 - - - - - - -
25/03:00pm 32.4 ENE 6 9 1013.1 - 0.0 - - - - - - -
25/02:30pm 32.3 ENE 7 9 1013.4 - 0.0 - - - - - - -
25/02:00pm 32.6 E 6 9 1013.7 - 0.0 - - - - - - -
25/01:30pm 32.2 E 6 10 1014.2 - 0.0 - - - - - - -
25/01:00pm 31.6 E 7 11 1014.7 - 0.0 - - - - - - -
25/12:30pm 31.4 E 6 10 1015.1 - 0.0 - - - - - - -
25/12:00pm 30.5 E 6 9 1015.5 - 0.0 - - - - - - -
25/11:30am 30.2 E 6 10 1015.8 - 0.0 - - - - - - -
25/11:00am 28.3 E 8 13 1016.1 - 0.0 - - - - - - -
25/10:30am 27.3 E 8 13 1016.3 - 0.0 - - - - - - -
25/10:00am 26.6 E 6 11 1016.4 - 0.0 - - - - - - -
25/09:30am 25.4 E 7 10 1016.4 - 0.0 - - - - - - -
25/09:00am 24.0 E 6 9 1016.6 - 0.0 - - - - - - -
25/08:30am 23.4 E 4 6 1016.3 - 0.0 - - - - - - -
25/08:00am 22.4 E 4 6 1015.9 - 0.0 - - - - - - -
25/07:30am 20.6 ESE 3 5 1015.4 - 0.0 - - - - - - -
25/07:00am 20.1 E 4 5 1015.0 - 0.0 - - - - - - -
25/06:30am 19.7 E 3 5 1014.9 - 0.0 - - - - - - -
25/06:00am 20.7 ESE 5 6 1014.5 - 0.0 - - - - - - -
25/05:30am 19.9 ESE 4 6 1014.4 - 0.0 - - - - - - -
25/05:00am 19.3 ESE 4 6 1014.5 - 0.0 - - - - - - -
25/04:30am 18.3 ESE 3 5 1014.3 - 0.0 - - - - - - -
25/04:00am 18.2 ESE 3 3 1014.3 - 0.0 - - - - - - -
25/03:30am 17.6 SE 2 3 1014.5 - 0.0 - - - - - - -
25/03:00am 17.5 SE 1 2 1014.7 - 0.0 - - - - - - -
25/02:30am 17.9 SE 1 2 1014.9 - 0.0 - - - - - - -
25/02:00am 18.2 SSE 2 3 1015.0 - 0.0 - - - - - - -
25/01:30am 18.7 SSE 1 2 1015.1 - 0.0 - - - - - - -
25/01:00am 18.2 S 1 2 1015.2 - 0.0 - - - - - - -
25/12:30am 18.8 CALM 0 2 1015.4 - 0.0 - - - - - - -
25/12:00am 18.6 CALM 0 0 1015.3 - 0.0 - - - - - - -
 
Date/Time
CST
Temp

°C
Wind Pressure Rain
since 9am
mm
Weather Cloud Vis
km
Sea
Height
m
Swell
Dir
 
Speed
knots
Gust
knots
hPa Trend Height
m
Period
s
Dir
24/11:30pm 19.8 S 1 2 1015.4 - 0.0 - - - - - - -
24/11:00pm 20.4 SSW 3 5 1015.4 - 0.0 - - - - - - -
24/10:30pm 19.6 CALM 0 0 1015.3 - 0.0 - - - - - - -
24/10:00pm 19.8 CALM 0 0 1015.3 - 0.0 - - - - - - -
24/09:30pm 19.9 CALM 0 0 1015.1 - 0.0 - - - - - - -
24/09:00pm 20.1 CALM 0 0 1014.8 - 0.0 - - - - - - -
24/08:30pm 20.5 CALM 0 0 1014.6 - 0.0 - - - - - - -
24/08:00pm 21.0 CALM 0 1 1014.2 - 0.0 - - - - - - -
24/07:30pm 21.9 NW 1 2 1013.8 - 0.0 - - - - - - -
24/07:00pm 23.2 CALM 0 1 1013.5 - 0.0 - - - - - - -
24/06:30pm 25.0 WNW 2 3 1013.2 - 0.0 - - - - - - -
24/06:00pm 27.5 NW 2 4 1012.9 - 0.0 - - - - - - -
24/05:30pm 28.4 NNW 4 7 1012.5 - 0.0 - - - - - - -
24/05:00pm 29.1 NNW 3 5 1012.3 - 0.0 - - - - - - -
24/04:30pm 29.7 NNW 4 7 1012.2 - 0.0 - - - - - - -
24/04:00pm 30.7 N 4 8 1012.0 - 0.0 - - - - - - -
24/03:30pm 31.6 NE 5 7 1012.0 - 0.0 - - - - - - -
24/03:00pm 32.1 ENE 5 8 1012.1 - 0.0 - - - - - - -
24/02:30pm 31.2 ENE 4 7 1012.2 - 0.0 - - - - - - -
24/02:00pm 31.1 ENE 5 9 1012.6 - 0.0 - - - - - - -
24/01:30pm 31.1 ENE 5 9 1012.9 - 0.0 - - - - - - -
24/01:00pm 30.5 ENE 7 11 1013.4 - 0.0 - - - - - - -
24/12:30pm 29.8 E 7 12 1014.0 - 0.0 - - - - - - -
24/12:00pm 29.4 E 8 12 1014.3 - 0.0 - - - - - - -
24/11:30am 28.8 E 8 13 1014.5 - 0.0 - - - - - - -
24/11:00am 27.8 E 9 13 1014.8 - 0.0 - - - - - - -
24/10:30am 26.9 ESE 7 12 1015.2 - 0.0 - - - - - - -
24/10:00am 25.5 E 8 13 1015.5 - 0.0 - - - - - - -
24/09:30am 24.7 E 7 12 1015.6 - 0.0 - - - - - - -
24/09:00am 23.5 ESE 6 8 1015.7 - 0.0 - - - - - - -
24/08:30am 22.7 ESE 3 6 1015.4 - 0.0 - - - - - - -
24/08:00am 21.7 ESE 3 4 1015.3 - 0.0 - - - - - - -
24/07:30am 21.4 ESE 3 5 1014.9 - 0.0 - - - - - - -
24/07:00am 21.5 ESE 4 7 1014.4 - 0.0 - - - - - - -
24/06:30am 22.0 ESE 5 8 1014.1 - 0.0 - - - - - - -
24/06:00am 22.4 E 6 9 1013.9 - 0.0 - - - - - - -
24/05:30am 22.2 E 4 8 1013.7 - 0.0 - - - - - - -
24/05:00am 22.7 E 5 8 1013.8 - 0.0 - - - - - - -
24/04:30am 22.9 E 4 6 1013.8 - 0.0 - - - - - - -
24/04:00am 22.9 E 4 7 1013.7 - 0.0 - - - - - - -
24/03:30am 22.6 E 4 6 1013.8 - 0.0 - - - - - - -
24/03:00am 21.4 E 3 5 1013.9 - 0.0 - - - - - - -
24/02:30am 21.8 E 3 5 1014.0 - 0.0 - - - - - - -
24/02:00am 23.7 E 4 7 1014.1 - 0.0 - - - - - - -
24/01:30am 23.9 ESE 5 7 1014.2 - 0.0 - - - - - - -
24/01:00am 23.4 ESE 4 6 1014.3 - 0.0 - - - - - - -
24/12:30am 22.3 ESE 3 5 1014.4 - 0.0 - - - - - - -
24/12:00am 21.6 ESE 3 4 1014.4 - 0.0 - - - - - - -
 
Date/Time
CST
Temp

°C
Wind Pressure Rain
since 9am
mm
Weather Cloud Vis
km
Sea
Height
m
Swell
Dir
 
Speed
knots
Gust
knots
hPa Trend Height
m
Period
s
Dir
23/11:30pm 21.9 SE 1 2 1014.4 - 0.0 - - - - - - -
23/11:00pm 22.4 SSE 2 3 1014.4 - 0.0 - - - - - - -
23/10:30pm 21.6 SSE 2 3 1014.3 - 0.0 - - - - - - -
23/10:00pm 21.7 SE 2 3 1014.1 - 0.0 - - - - - - -
23/09:30pm 21.8 NE 2 2 1014.0 - 0.0 - - - - - - -
23/09:00pm 22.2 CALM 0 1 1013.8 - 0.0 - - - - - - -
23/08:30pm 22.0 NNE 1 1 1013.4 - 0.0 - - - - - - -
23/08:00pm 22.6 CALM 0 0 1013.2 - 0.0 - - - - - - -
23/07:30pm 23.8 CALM 0 0 1012.8 - 0.0 - - - - - - -
23/07:00pm 26.3 W 2 3 1012.5 - 0.0 - - - - - - -
23/06:30pm 27.1 WNW 3 4 1012.4 - 0.0 - - - - - - -
23/06:00pm 28.1 WNW 2 5 1012.2 - 0.0 - - - - - - -
23/05:30pm 28.9 WNW 3 5 1011.9 - 0.0 - - - - - - -
23/05:00pm 29.5 W 4 8 1011.8 - 0.0 - - - - - - -
23/04:30pm 30.2 W 5 8 1011.8 - 0.0 - - - - - - -
23/04:00pm 31.3 WNW 2 5 1011.7 - 0.0 - - - - - - -
23/03:30pm 31.6 W 2 4 1011.9 - 0.0 - - - - - - -
23/03:00pm 32.7 E 4 7 1012.2 - 0.0 - - - - - - -
23/02:30pm 32.3 ESE 3 7 1012.5 - 0.0 - - - - - - -
23/02:00pm 31.6 E 4 7 1013.1 - 0.0 - - - - - - -
23/01:30pm 31.1 E 4 6 1013.7 - 0.0 - - - - - - -
23/01:00pm 30.8 E 5 8 1014.1 - 0.0 - - - - - - -
23/12:30pm 30.1 E 6 9 1014.6 - 0.0 - - - - - - -
23/12:00pm 29.9 E 7 10 1014.9 - 0.0 - - - - - - -
23/11:30am 28.9 E 8 13 1015.4 - 0.0 - - - - - - -
23/11:00am 28.0 ESE 8 12 1015.8 - 0.0 - - - - - - -
23/10:30am 27.3 ESE 8 13 1016.2 - 0.0 - - - - - - -
23/10:00am 26.7 ESE 9 15 1016.2 - 0.0 - - - - - - -
23/09:30am 25.9 ESE 9 15 1016.4 - 0.0 - - - - - - -
23/09:00am 25.0 ESE 7 13 1016.2 - 0.0 - - - - - - -
23/08:30am 24.3 ESE 7 11 1016.2 - 0.0 - - - - - - -
23/08:00am 23.7 ESE 6 10 1015.9 - 0.0 - - - - - - -
23/07:30am 23.7 ESE 4 7 1015.8 - 0.0 - - - - - - -
23/07:00am 23.4 ESE 5 9 1015.5 - 0.0 - - - - - - -
23/06:30am 23.0 ESE 5 8 1015.2 - 0.0 - - - - - - -
23/06:00am 22.2 ESE 3 6 1014.8 - 0.0 - - - - - - -
23/05:30am 22.3 ESE 3 4 1014.8 - 0.0 - - - - - - -
23/05:00am 22.7 ESE 4 5 1014.7 - 0.0 - - - - - - -
23/04:30am 21.5 ESE 2 3 1014.6 - 0.0 - - - - - - -
23/04:00am 21.1 ESE 1 2 1014.6 - 0.0 - - - - - - -
23/03:30am 22.4 CALM 0 1 1014.5 - 0.0 - - - - - - -
23/03:00am 22.9 CALM 0 1 1014.6 - 0.0 - - - - - - -
23/02:30am 23.7 CALM 0 2 1014.5 - 0.0 - - - - - - -
23/02:00am 24.1 S 2 3 1014.5 - 0.0 - - - - - - -
23/01:30am 23.8 CALM 0 0 1014.5 - 0.0 - - - - - - -

Other Formats:

Comma delimited format used in spreadsheet applications
http://www.bom.gov.au/fwo/IDD60701/IDD60701.94116.axf

JavaScript Object Notation format (JSON) in row-major order
http://www.bom.gov.au/fwo/IDD60701/IDD60701.94116.json